createdAt,value
2023-05-07T00:00:16.849Z,7.99
2023-05-07T00:02:46.118Z,7.94
2023-05-07T00:05:14.799Z,7.99
2023-05-07T00:07:43.899Z,7.94
2023-05-07T00:10:14.259Z,7.90
2023-05-07T00:12:42.927Z,7.85
2023-05-07T00:15:12.270Z,7.78
2023-05-07T00:17:40.863Z,7.84
2023-05-07T00:20:09.811Z,7.87
2023-05-07T00:22:41.789Z,7.82
2023-05-07T00:25:11.541Z,7.80
2023-05-07T00:27:39.744Z,7.86
2023-05-07T00:30:08.785Z,7.86
2023-05-07T00:32:38.343Z,7.80
2023-05-07T00:35:10.002Z,7.75
2023-05-07T00:37:38.781Z,7.65
2023-05-07T00:40:09.126Z,7.65
2023-05-07T00:42:38.053Z,7.68
2023-05-07T00:45:06.343Z,7.67
2023-05-07T00:47:35.199Z,7.70
2023-05-07T00:50:03.846Z,7.63
2023-05-07T00:52:36.197Z,7.59
2023-05-07T00:55:07.357Z,7.53
2023-05-07T00:57:39.710Z,7.55
2023-05-07T01:00:10.371Z,7.54
2023-05-07T01:02:40.099Z,7.54
2023-05-07T01:05:11.256Z,7.55
2023-05-07T01:07:41.470Z,7.45
2023-05-07T01:10:11.154Z,7.55
2023-05-07T01:12:40.685Z,7.51
2023-05-07T01:15:10.385Z,7.48
2023-05-07T01:17:41.527Z,7.54
2023-05-07T01:20:16.072Z,7.53
2023-05-07T01:22:45.124Z,7.55
2023-05-07T01:25:13.946Z,7.45
2023-05-07T01:27:42.469Z,7.52
2023-05-07T01:30:11.087Z,7.38
2023-05-07T01:32:41.930Z,7.39
2023-05-07T01:35:14.127Z,7.36
2023-05-07T01:37:42.747Z,7.29
2023-05-07T01:40:11.634Z,7.37
2023-05-07T01:42:40.332Z,7.28
2023-05-07T01:45:09.418Z,7.28
2023-05-07T01:47:39.112Z,7.27
2023-05-07T01:50:09.811Z,7.34
2023-05-07T01:52:42.230Z,7.30
2023-05-07T01:55:11.121Z,7.26
2023-05-07T01:57:39.771Z,7.30
2023-05-07T02:00:10.121Z,7.25
2023-05-07T02:02:39.964Z,7.34
2023-05-07T02:05:09.598Z,7.25
2023-05-07T02:07:38.742Z,7.29
2023-05-07T02:10:08.017Z,7.22
2023-05-07T02:12:36.662Z,7.33
2023-05-07T02:15:08.917Z,7.28
2023-05-07T02:17:41.934Z,7.29
2023-05-07T02:20:15.012Z,7.24
2023-05-07T02:22:45.442Z,7.32
2023-05-07T02:25:16.548Z,7.24
2023-05-07T02:27:44.488Z,7.37
2023-05-07T02:30:13.108Z,7.53
2023-05-07T02:32:41.450Z,8.03
2023-05-07T02:35:11.109Z,8.78
2023-05-07T02:37:39.242Z,9.61
2023-05-07T02:40:08.695Z,10.80
2023-05-07T02:42:37.400Z,11.64
2023-05-07T02:45:06.287Z,12.06
2023-05-07T02:47:34.576Z,12.66
2023-05-07T02:50:04.943Z,13.00
2023-05-07T02:52:33.428Z,13.79
2023-05-07T02:55:01.355Z,14.05
2023-05-07T02:57:29.891Z,14.52
2023-05-07T02:59:59.907Z,14.43
2023-05-07T03:02:27.850Z,14.91
2023-05-07T03:04:56.092Z,15.11
2023-05-07T03:07:24.263Z,16.09
2023-05-07T03:09:52.299Z,16.65
2023-05-07T03:12:20.335Z,16.76
2023-05-07T03:14:51.082Z,17.19
2023-05-07T03:17:19.190Z,17.15
2023-05-07T03:19:47.417Z,17.17
2023-05-07T03:22:16.100Z,17.68
2023-05-07T03:24:44.145Z,17.71
2023-05-07T03:27:12.225Z,17.94
2023-05-07T03:29:40.206Z,17.82
2023-05-07T03:32:08.579Z,18.75
2023-05-07T03:34:36.772Z,19.01
2023-05-07T03:37:05.038Z,19.39
2023-05-07T03:39:35.282Z,19.81
2023-05-07T03:42:03.810Z,21.04
2023-05-07T03:44:32.033Z,21.46
2023-05-07T03:47:00.303Z,21.56
2023-05-07T03:49:28.366Z,22.61
2023-05-07T03:51:57.267Z,22.70
2023-05-07T03:54:32.028Z,22.73
2023-05-07T03:57:00.440Z,21.79
2023-05-07T03:59:28.632Z,22.79
2023-05-07T04:01:56.870Z,23.53
2023-05-07T04:04:25.109Z,23.83
2023-05-07T04:06:54.649Z,23.25
2023-05-07T04:09:23.401Z,23.73
2023-05-07T04:11:51.672Z,23.76
2023-05-07T04:14:19.691Z,23.26
2023-05-07T04:16:47.776Z,23.29
2023-05-07T04:19:16.031Z,24.13
2023-05-07T04:21:44.751Z,24.82
2023-05-07T04:24:13.244Z,24.69
2023-05-07T04:26:41.654Z,24.36
2023-05-07T04:29:09.950Z,24.78
2023-05-07T04:31:40.174Z,24.91
2023-05-07T04:34:10.357Z,23.69
2023-05-07T04:36:41.028Z,23.72
2023-05-07T04:39:09.112Z,24.17
2023-05-07T04:41:40.244Z,24.55
2023-05-07T04:44:08.308Z,23.75
2023-05-07T04:46:36.409Z,24.68
2023-05-07T04:49:04.678Z,25.84
2023-05-07T04:51:38.017Z,25.59
2023-05-07T04:54:06.169Z,26.27
2023-05-07T04:56:35.008Z,26.57
2023-05-07T04:59:03.224Z,26.81
2023-05-07T05:01:32.128Z,25.67
2023-05-07T05:04:01.858Z,26.28
2023-05-07T05:06:30.499Z,26.17
2023-05-07T05:08:58.581Z,25.62
2023-05-07T05:11:28.834Z,25.63
2023-05-07T05:13:57.142Z,24.93
2023-05-07T05:16:25.722Z,24.36
2023-05-07T05:18:55.589Z,24.07
2023-05-07T05:21:23.727Z,24.25
2023-05-07T05:23:51.988Z,23.64
2023-05-07T05:26:20.551Z,23.65
2023-05-07T05:28:48.873Z,25.03
2023-05-07T05:31:18.193Z,24.28
2023-05-07T05:33:46.378Z,24.20
2023-05-07T05:36:14.507Z,23.49
2023-05-07T05:38:42.656Z,23.63
2023-05-07T05:41:11.157Z,24.37
2023-05-07T05:43:39.387Z,25.22
2023-05-07T05:46:07.688Z,25.31
2023-05-07T05:48:36.325Z,25.09
2023-05-07T05:51:05.384Z,24.22
2023-05-07T05:53:33.462Z,23.90
2023-05-07T05:56:06.290Z,24.40
2023-05-07T05:58:34.620Z,23.68
2023-05-07T06:01:04.041Z,24.31
2023-05-07T06:03:33.883Z,24.56
2023-05-07T06:06:02.151Z,23.99
2023-05-07T06:08:33.302Z,24.31
2023-05-07T06:11:02.876Z,23.46
2023-05-07T06:13:31.037Z,23.23
2023-05-07T06:15:59.351Z,23.24
2023-05-07T06:18:27.513Z,23.18
2023-05-07T06:20:55.594Z,23.32
2023-05-07T06:23:23.502Z,22.58
2023-05-07T06:25:53.094Z,23.18
2023-05-07T06:28:21.378Z,23.09
2023-05-07T06:30:51.120Z,22.51
2023-05-07T06:33:18.776Z,22.11
2023-05-07T06:35:47.105Z,22.48
2023-05-07T06:38:15.210Z,22.63
2023-05-07T06:40:43.411Z,23.48
2023-05-07T06:43:12.312Z,23.12
2023-05-07T06:45:40.215Z,23.05
2023-05-07T06:48:08.330Z,23.14
2023-05-07T06:50:36.362Z,22.71
2023-05-07T06:53:04.795Z,22.08
2023-05-07T06:55:34.027Z,20.36
2023-05-07T06:58:02.379Z,18.08
2023-05-07T07:00:30.833Z,16.85
2023-05-07T07:03:02.209Z,15.48
2023-05-07T07:05:30.726Z,14.97
2023-05-07T07:07:58.675Z,14.63
2023-05-07T07:10:27.703Z,14.54
2023-05-07T07:12:58.623Z,14.28
2023-05-07T07:15:28.032Z,14.04
2023-05-07T07:17:56.267Z,13.97
2023-05-07T07:20:24.799Z,13.87
2023-05-07T07:22:53.576Z,13.82
2023-05-07T07:25:22.066Z,14.19
2023-05-07T07:27:50.994Z,14.21
2023-05-07T07:30:19.449Z,14.00
2023-05-07T07:32:47.625Z,14.04
2023-05-07T07:35:15.680Z,13.95
2023-05-07T07:37:46.054Z,13.90
2023-05-07T07:40:14.500Z,14.30
2023-05-07T07:42:42.492Z,14.05
2023-05-07T07:45:12.140Z,14.09
2023-05-07T07:47:42.150Z,14.09
2023-05-07T07:50:11.094Z,14.30
2023-05-07T07:52:39.514Z,14.40
2023-05-07T07:55:08.291Z,14.58
2023-05-07T07:57:37.135Z,14.45
2023-05-07T08:00:08.758Z,14.71
2023-05-07T08:02:37.320Z,14.85
2023-05-07T08:05:05.740Z,14.66
2023-05-07T08:07:33.732Z,14.61
2023-05-07T08:10:01.675Z,14.69
2023-05-07T08:12:29.738Z,14.65
2023-05-07T08:14:57.754Z,14.80
2023-05-07T08:17:26.343Z,14.95
2023-05-07T08:19:54.861Z,14.70
2023-05-07T08:22:24.930Z,14.62
2023-05-07T08:24:54.707Z,14.60
2023-05-07T08:27:22.614Z,14.71
2023-05-07T08:29:51.145Z,14.89
2023-05-07T08:32:19.085Z,15.10
2023-05-07T08:34:47.455Z,15.21
2023-05-07T08:37:15.467Z,15.27
2023-05-07T08:39:43.695Z,15.31
2023-05-07T08:42:12.922Z,15.38
2023-05-07T08:44:48.215Z,15.16
2023-05-07T08:47:16.481Z,15.01
2023-05-07T08:49:44.391Z,15.09
2023-05-07T08:52:18.296Z,15.10
2023-05-07T08:54:46.531Z,15.08
2023-05-07T08:57:14.496Z,15.16
2023-05-07T08:59:46.200Z,15.23
2023-05-07T09:02:14.474Z,15.34
2023-05-07T09:04:42.740Z,15.37
2023-05-07T09:07:11.342Z,15.29
2023-05-07T09:09:39.590Z,15.23
2023-05-07T09:12:07.998Z,15.19
2023-05-07T09:14:40.353Z,15.29
2023-05-07T09:17:09.491Z,15.32
2023-05-07T09:19:38.522Z,15.32
2023-05-07T09:22:10.515Z,15.35
2023-05-07T09:24:39.204Z,15.45
2023-05-07T09:27:08.140Z,15.50
2023-05-07T09:29:37.123Z,15.71
2023-05-07T09:32:07.192Z,15.38
2023-05-07T09:34:36.245Z,15.58
2023-05-07T09:37:05.350Z,15.69
2023-05-07T09:39:50.441Z,15.65
2023-05-07T09:42:24.838Z,15.74
2023-05-07T09:44:52.933Z,15.84
2023-05-07T09:47:23.039Z,15.70
2023-05-07T09:49:51.624Z,15.76
2023-05-07T09:52:19.891Z,15.72
2023-05-07T09:54:48.644Z,15.62
2023-05-07T09:57:17.300Z,15.94
2023-05-07T09:59:45.563Z,16.14
2023-05-07T10:02:15.091Z,16.07
2023-05-07T10:04:43.510Z,15.92
2023-05-07T10:07:11.646Z,15.76
2023-05-07T10:09:40.828Z,15.84
2023-05-07T10:12:09.344Z,15.90
2023-05-07T10:14:38.025Z,16.18
2023-05-07T10:17:06.677Z,16.47
2023-05-07T10:19:35.953Z,16.47
2023-05-07T10:22:07.494Z,16.52
2023-05-07T10:24:38.109Z,16.40
2023-05-07T10:27:11.665Z,16.43
2023-05-07T10:29:58.830Z,16.69
2023-05-07T10:32:44.167Z,16.42
2023-05-07T10:35:17.750Z,16.40
2023-05-07T10:37:46.714Z,16.44
2023-05-07T10:40:15.175Z,16.45
2023-05-07T10:43:06.440Z,16.55
2023-05-07T10:45:36.694Z,16.41
2023-05-07T10:50:49.694Z,16.48
2023-05-07T10:53:19.275Z,16.46
2023-05-07T10:55:52.206Z,16.49
2023-05-07T10:58:31.483Z,16.54
2023-05-07T11:01:02.326Z,16.76
2023-05-07T11:03:31.200Z,16.56
2023-05-07T11:06:16.303Z,16.62
2023-05-07T11:08:54.154Z,16.64
2023-05-07T11:11:49.060Z,16.80
2023-05-07T11:14:43.676Z,16.61
2023-05-07T11:17:11.940Z,16.64
2023-05-07T11:19:54.085Z,16.89
2023-05-07T11:22:34.450Z,16.84
2023-05-07T11:25:07.235Z,16.68
2023-05-07T11:27:37.180Z,16.53
2023-05-07T11:30:06.041Z,16.63
2023-05-07T11:32:34.515Z,16.64
2023-05-07T11:35:02.710Z,16.78
2023-05-07T11:37:31.639Z,16.93
2023-05-07T11:40:08.024Z,16.94
2023-05-07T11:42:38.879Z,16.98
2023-05-07T11:45:09.162Z,16.96
2023-05-07T11:47:38.059Z,16.99
2023-05-07T11:50:08.821Z,17.23
2023-05-07T11:52:37.605Z,17.27
2023-05-07T11:55:06.390Z,17.12
2023-05-07T11:57:34.875Z,17.03
2023-05-07T12:00:05.301Z,16.95
2023-05-07T12:02:34.309Z,17.03
2023-05-07T12:05:03.945Z,17.18
2023-05-07T12:07:33.274Z,17.39
2023-05-07T12:10:06.582Z,17.37
2023-05-07T12:12:47.907Z,17.35
2023-05-07T12:15:19.627Z,17.52
2023-05-07T12:17:48.101Z,17.46
2023-05-07T12:20:16.350Z,17.41
2023-05-07T12:22:44.645Z,17.56
2023-05-07T12:25:21.185Z,17.70
2023-05-07T12:27:54.126Z,17.85
2023-05-07T12:30:22.296Z,17.77
2023-05-07T12:32:54.930Z,17.50
2023-05-07T12:35:34.092Z,17.37
2023-05-07T12:38:05.791Z,17.23
2023-05-07T12:40:52.529Z,17.18
2023-05-07T12:43:28.079Z,17.32
2023-05-07T12:45:58.509Z,17.30
2023-05-07T12:48:28.513Z,17.33
2023-05-07T12:50:58.184Z,17.24
2023-05-07T12:53:28.256Z,17.16
2023-05-07T12:55:59.092Z,17.21
2023-05-07T12:58:29.474Z,17.15
2023-05-07T13:01:02.414Z,17.37
2023-05-07T13:03:33.345Z,17.17
2023-05-07T13:06:04.098Z,17.21
2023-05-07T13:08:41.718Z,17.48
2023-05-07T13:11:11.944Z,17.38
2023-05-07T13:13:42.007Z,17.39
2023-05-07T13:16:12.480Z,17.16
2023-05-07T13:18:42.442Z,17.07
2023-05-07T13:21:11.478Z,17.17
2023-05-07T13:23:39.949Z,17.24
2023-05-07T13:26:24.876Z,17.30
2023-05-07T13:28:56.301Z,17.41
2023-05-07T13:31:25.504Z,17.68
2023-05-07T13:33:54.157Z,17.83
2023-05-07T13:36:22.966Z,17.89
2023-05-07T13:38:53.111Z,17.83
2023-05-07T13:41:21.867Z,17.89
2023-05-07T13:43:50.220Z,17.88
2023-05-07T13:46:18.781Z,17.89
2023-05-07T13:48:47.012Z,17.71
2023-05-07T13:51:15.019Z,17.40
2023-05-07T13:53:50.069Z,17.40
2023-05-07T13:56:19.971Z,17.33
2023-05-07T13:58:59.564Z,17.40
2023-05-07T14:01:32.423Z,17.45
2023-05-07T14:04:01.021Z,17.44
2023-05-07T14:06:29.432Z,17.36
2023-05-07T14:08:59.506Z,17.32
2023-05-07T14:11:27.740Z,17.32
2023-05-07T14:13:58.255Z,17.34
2023-05-07T14:16:26.816Z,17.34
2023-05-07T14:18:57.979Z,17.44
2023-05-07T14:21:29.740Z,17.41
2023-05-07T14:23:57.981Z,17.38
2023-05-07T14:26:28.453Z,17.16
2023-05-07T14:28:59.525Z,17.03
2023-05-07T14:31:27.885Z,17.08
2023-05-07T14:33:56.162Z,17.05
2023-05-07T14:36:27.654Z,17.13
2023-05-07T14:38:56.476Z,17.07
2023-05-07T14:41:27.547Z,17.01
2023-05-07T14:43:57.121Z,17.07
2023-05-07T14:46:27.356Z,17.11
2023-05-07T14:48:55.533Z,17.10
2023-05-07T14:51:23.596Z,16.93
2023-05-07T14:53:53.054Z,16.92
2023-05-07T14:56:22.877Z,16.80
2023-05-07T14:58:51.159Z,16.88
2023-05-07T15:01:19.648Z,16.83
2023-05-07T15:03:48.133Z,16.74
2023-05-07T15:06:16.558Z,16.90
2023-05-07T15:08:44.774Z,16.79
2023-05-07T15:11:13.246Z,16.78
2023-05-07T15:13:41.269Z,16.79
2023-05-07T15:16:09.167Z,16.81
2023-05-07T15:18:38.822Z,16.78
2023-05-07T15:21:07.696Z,16.68
2023-05-07T15:23:37.477Z,16.74
2023-05-07T15:26:07.168Z,16.73
2023-05-07T15:28:35.849Z,16.70
2023-05-07T15:31:04.034Z,16.50
2023-05-07T15:33:32.196Z,16.59
2023-05-07T15:36:00.509Z,16.45
2023-05-07T15:38:28.491Z,16.58
2023-05-07T15:40:57.304Z,16.54
2023-05-07T15:43:26.702Z,16.51
2023-05-07T15:45:55.310Z,16.40
2023-05-07T15:48:23.486Z,16.37
2023-05-07T15:50:51.778Z,16.39
2023-05-07T15:53:20.509Z,16.34
2023-05-07T15:55:49.588Z,16.39
2023-05-07T15:58:23.003Z,16.30
2023-05-07T16:00:51.229Z,16.21
2023-05-07T16:03:19.919Z,16.17
2023-05-07T16:05:48.194Z,16.10
2023-05-07T16:08:16.640Z,16.07
2023-05-07T16:10:45.974Z,16.04
2023-05-07T16:13:14.568Z,15.97
2023-05-07T16:15:42.955Z,15.78
2023-05-07T16:18:12.750Z,15.80
2023-05-07T16:20:41.250Z,15.74
2023-05-07T16:23:10.443Z,15.73
2023-05-07T16:25:39.006Z,15.53
2023-05-07T16:28:08.298Z,15.43
2023-05-07T16:30:37.435Z,15.27
2023-05-07T16:33:06.042Z,15.19
2023-05-07T16:35:34.206Z,15.07
2023-05-07T16:38:02.371Z,15.02
2023-05-07T16:40:30.764Z,14.94
2023-05-07T16:42:58.788Z,14.92
2023-05-07T16:45:26.991Z,14.81
2023-05-07T16:47:57.187Z,14.78
2023-05-07T16:50:25.327Z,14.66
2023-05-07T16:53:09.925Z,14.58
2023-05-07T16:55:41.915Z,14.58
2023-05-07T16:58:11.808Z,14.50
2023-05-07T17:00:49.839Z,14.42
2023-05-07T17:03:19.853Z,14.38
2023-05-07T17:05:48.464Z,14.34
2023-05-07T17:08:17.234Z,14.28
2023-05-07T17:10:46.930Z,14.19
2023-05-07T17:13:17.931Z,14.15
2023-05-07T17:15:48.318Z,14.17
2023-05-07T17:18:17.378Z,14.09
2023-05-07T17:20:45.690Z,14.06
2023-05-07T17:23:14.410Z,14.02
2023-05-07T17:25:45.837Z,14.00
2023-05-07T17:28:14.654Z,13.95
2023-05-07T17:30:43.058Z,13.93
2023-05-07T17:33:20.844Z,13.83
2023-05-07T17:35:50.792Z,13.83
2023-05-07T17:38:18.982Z,13.79
2023-05-07T17:40:47.131Z,13.78
2023-05-07T17:43:16.052Z,13.68
2023-05-07T17:45:44.349Z,13.66
2023-05-07T17:48:13.504Z,13.61
2023-05-07T17:50:41.969Z,13.62
2023-05-07T17:53:10.286Z,13.52
2023-05-07T17:55:45.423Z,13.48
2023-05-07T17:58:13.708Z,13.45
2023-05-07T18:00:42.010Z,13.44
2023-05-07T18:03:10.485Z,13.37
2023-05-07T18:05:40.010Z,13.37
2023-05-07T18:08:08.424Z,13.35
2023-05-07T18:10:36.729Z,13.28
2023-05-07T18:13:05.162Z,13.27
2023-05-07T18:15:33.702Z,13.22
2023-05-07T18:18:01.608Z,13.19
2023-05-07T18:20:32.660Z,13.10
2023-05-07T18:23:01.249Z,13.12
2023-05-07T18:25:33.313Z,13.04
2023-05-07T18:28:01.663Z,12.98
2023-05-07T18:30:30.949Z,12.92
2023-05-07T18:32:59.450Z,12.85
2023-05-07T18:35:27.650Z,12.83
2023-05-07T18:37:55.948Z,12.81
2023-05-07T18:40:24.144Z,12.74
2023-05-07T18:42:53.584Z,12.63
2023-05-07T18:45:22.187Z,12.58
2023-05-07T18:47:50.348Z,12.56
2023-05-07T18:50:21.438Z,12.49
2023-05-07T18:52:49.568Z,12.37
2023-05-07T18:55:17.876Z,12.44
2023-05-07T18:57:46.283Z,12.41
2023-05-07T19:00:15.340Z,12.31
2023-05-07T19:02:44.183Z,12.24
2023-05-07T19:05:13.516Z,12.15
2023-05-07T19:07:41.931Z,12.20
2023-05-07T19:10:10.344Z,12.18
2023-05-07T19:12:38.900Z,12.09
2023-05-07T19:15:08.035Z,12.09
2023-05-07T19:17:41.832Z,12.11
2023-05-07T19:20:10.971Z,12.09
2023-05-07T19:22:41.793Z,12.07
2023-05-07T19:25:13.354Z,12.03
2023-05-07T19:27:44.807Z,11.97
2023-05-07T19:30:13.012Z,11.92
2023-05-07T19:32:44.257Z,11.86
2023-05-07T19:35:17.356Z,11.85
2023-05-07T19:37:46.171Z,11.81
2023-05-07T19:40:15.081Z,11.77
2023-05-07T19:42:43.285Z,11.78
2023-05-07T19:45:12.341Z,11.79
2023-05-07T19:47:41.609Z,11.74
2023-05-07T19:50:10.310Z,11.79
2023-05-07T19:52:38.713Z,11.79
2023-05-07T19:55:07.261Z,11.71
2023-05-07T19:57:37.809Z,11.70
2023-05-07T20:00:07.722Z,11.69
2023-05-07T20:02:37.331Z,11.64
2023-05-07T20:05:05.690Z,11.68
2023-05-07T20:07:34.097Z,11.70
2023-05-07T20:10:02.280Z,11.70
2023-05-07T20:12:31.087Z,11.63
2023-05-07T20:14:59.391Z,11.66
2023-05-07T20:17:27.566Z,11.69
2023-05-07T20:19:55.812Z,11.70
2023-05-07T20:22:24.176Z,11.67
2023-05-07T20:24:52.650Z,11.68
2023-05-07T20:27:35.752Z,11.63
2023-05-07T20:30:15.068Z,11.58
2023-05-07T20:32:43.720Z,11.58
2023-05-07T20:35:13.009Z,11.51
2023-05-07T20:37:41.452Z,11.48
2023-05-07T20:40:09.970Z,11.47
2023-05-07T20:42:38.627Z,11.48
2023-05-07T20:45:08.436Z,11.44
2023-05-07T20:47:37.663Z,11.45
2023-05-07T20:50:06.514Z,11.41
2023-05-07T20:52:36.028Z,11.47
2023-05-07T20:55:04.309Z,11.51
2023-05-07T20:57:32.716Z,11.50
2023-05-07T21:00:01.215Z,11.38
2023-05-07T21:02:32.424Z,11.40
2023-05-07T21:05:00.466Z,11.42
2023-05-07T21:07:28.763Z,11.43
2023-05-07T21:09:56.831Z,11.43
2023-05-07T21:12:24.960Z,11.42
2023-05-07T21:14:52.897Z,11.36
2023-05-07T21:17:21.399Z,11.38
2023-05-07T21:19:50.487Z,11.33
2023-05-07T21:22:18.632Z,11.21
2023-05-07T21:24:46.918Z,11.23
2023-05-07T21:27:15.381Z,11.18
2023-05-07T21:29:43.731Z,11.22
2023-05-07T21:32:11.763Z,11.08
2023-05-07T21:34:40.093Z,11.07
2023-05-07T21:37:08.426Z,11.05
2023-05-07T21:39:36.530Z,11.05
2023-05-07T21:42:04.842Z,11.05
2023-05-07T21:44:33.359Z,10.96
2023-05-07T21:47:01.832Z,10.98
2023-05-07T21:49:31.259Z,10.91
2023-05-07T21:52:02.370Z,10.85
2023-05-07T21:54:30.634Z,10.83
2023-05-07T21:56:58.926Z,10.84
2023-05-07T21:59:26.995Z,10.88
2023-05-07T22:01:55.196Z,10.83
2023-05-07T22:04:23.499Z,10.84
2023-05-07T22:06:51.771Z,10.84
2023-05-07T22:09:20.393Z,10.82
2023-05-07T22:11:48.745Z,10.76
2023-05-07T22:14:18.989Z,10.77
2023-05-07T22:16:47.671Z,10.74
2023-05-07T22:19:15.990Z,10.81
2023-05-07T22:21:44.205Z,10.75
2023-05-07T22:24:13.068Z,10.73
2023-05-07T22:26:43.010Z,10.71
2023-05-07T22:29:11.751Z,10.71
2023-05-07T22:31:42.933Z,10.69
2023-05-07T22:34:11.035Z,10.74
2023-05-07T22:36:39.066Z,10.72
2023-05-07T22:39:10.098Z,10.72
2023-05-07T22:41:38.179Z,10.72
2023-05-07T22:44:09.198Z,10.76
2023-05-07T22:46:37.360Z,10.71
2023-05-07T22:49:06.133Z,10.67
2023-05-07T22:51:34.231Z,10.65
2023-05-07T22:54:03.472Z,10.61
2023-05-07T22:56:32.302Z,10.69
2023-05-07T22:59:00.171Z,10.70
2023-05-07T23:01:28.260Z,10.65
2023-05-07T23:03:56.424Z,10.71
2023-05-07T23:06:25.234Z,10.73
2023-05-07T23:08:54.159Z,10.69
2023-05-07T23:11:22.735Z,10.69
2023-05-07T23:13:51.718Z,10.70
2023-05-07T23:16:20.362Z,10.73
2023-05-07T23:18:48.875Z,10.73
2023-05-07T23:21:17.100Z,10.72
2023-05-07T23:23:45.201Z,10.68
2023-05-07T23:26:14.243Z,10.63
2023-05-07T23:28:42.569Z,10.59
2023-05-07T23:31:15.511Z,10.58
2023-05-07T23:33:43.750Z,10.59
2023-05-07T23:36:11.715Z,10.58
2023-05-07T23:38:42.406Z,10.62
2023-05-07T23:41:10.383Z,10.62
2023-05-07T23:43:38.180Z,10.58
2023-05-07T23:46:06.437Z,10.56
2023-05-07T23:48:35.196Z,10.57
2023-05-07T23:51:03.645Z,10.60
2023-05-07T23:53:31.891Z,10.57
2023-05-07T23:55:59.875Z,10.57
2023-05-07T23:58:28.547Z,10.57
